createdAt,value
2022-09-29T00:02:20.730Z,9.07
2022-09-29T00:04:47.552Z,9.98
2022-09-29T00:07:14.761Z,9.82
2022-09-29T00:09:41.557Z,8.85
2022-09-29T00:12:08.363Z,9.15
2022-09-29T00:14:35.588Z,9.35
2022-09-29T00:17:02.468Z,9.55
2022-09-29T00:19:29.408Z,9.30
2022-09-29T00:21:56.464Z,9.80
2022-09-29T00:24:23.277Z,8.57
2022-09-29T00:26:50.073Z,10.05
2022-09-29T00:29:17.048Z,9.55
2022-09-29T00:31:44.065Z,9.75
2022-09-29T00:34:10.954Z,10.15
2022-09-29T00:36:38.401Z,9.80
2022-09-29T00:39:05.295Z,9.38
2022-09-29T00:41:34.395Z,10.20
2022-09-29T00:44:05.202Z,9.50
2022-09-29T00:46:40.816Z,8.57
2022-09-29T00:49:16.831Z,8.48
2022-09-29T00:51:46.855Z,8.70
2022-09-29T00:54:13.843Z,8.55
2022-09-29T00:56:40.688Z,8.15
2022-09-29T00:59:09.017Z,7.72
2022-09-29T01:01:36.100Z,8.77
2022-09-29T01:04:05.103Z,8.52
2022-09-29T01:06:38.071Z,8.90
2022-09-29T01:09:07.186Z,8.50
2022-09-29T01:11:33.962Z,8.95
2022-09-29T01:14:03.885Z,9.55
2022-09-29T01:16:32.394Z,9.73
2022-09-29T01:19:14.017Z,8.82
2022-09-29T01:21:58.508Z,9.30
2022-09-29T01:24:43.428Z,9.15
2022-09-29T01:27:27.277Z,9.05
2022-09-29T01:29:56.805Z,9.45
2022-09-29T01:32:32.936Z,8.35
2022-09-29T01:35:31.257Z,9.88
2022-09-29T01:38:18.509Z,8.70
2022-09-29T01:41:30.368Z,9.23
2022-09-29T01:44:01.382Z,8.07
2022-09-29T01:46:31.184Z,8.27
2022-09-29T01:48:58.209Z,9.25
2022-09-29T01:51:36.785Z,7.75
2022-09-29T01:54:06.498Z,9.05
2022-09-29T01:56:38.517Z,8.35
2022-09-29T01:59:32.098Z,7.97
2022-09-29T02:02:01.466Z,9.70
2022-09-29T02:04:33.376Z,9.60
2022-09-29T02:07:07.364Z,9.52
2022-09-29T02:09:38.720Z,9.68
2022-09-29T02:12:07.285Z,9.48
2022-09-29T02:14:38.622Z,9.27
2022-09-29T02:17:36.588Z,9.55
2022-09-29T02:20:03.953Z,9.60
2022-09-29T02:22:31.013Z,9.07
2022-09-29T02:24:59.216Z,9.95
2022-09-29T02:27:28.673Z,9.20
2022-09-29T02:29:56.644Z,9.40
2022-09-29T02:32:23.381Z,9.55
2022-09-29T02:34:50.582Z,8.60
2022-09-29T02:37:36.906Z,9.15
2022-09-29T02:40:03.887Z,8.85
2022-09-29T02:42:55.802Z,8.50
2022-09-29T02:45:41.246Z,9.40
2022-09-29T02:51:08.164Z,7.25
2022-09-29T02:54:12.716Z,7.90
2022-09-29T02:56:48.076Z,8.13
2022-09-29T02:59:25.145Z,9.02
2022-09-29T03:01:53.133Z,7.80
2022-09-29T03:04:21.000Z,7.03
2022-09-29T03:06:48.005Z,7.88
2022-09-29T03:09:15.093Z,8.27
2022-09-29T03:11:42.669Z,7.28
2022-09-29T03:14:09.541Z,7.10
2022-09-29T03:16:37.082Z,7.35
2022-09-29T03:19:05.415Z,7.18
2022-09-29T03:21:32.718Z,7.57
2022-09-29T03:23:59.717Z,8.02
2022-09-29T03:26:26.784Z,7.47
2022-09-29T03:28:53.629Z,7.53
2022-09-29T03:31:20.485Z,7.68
2022-09-29T03:33:47.617Z,7.55
2022-09-29T03:36:14.456Z,6.63
2022-09-29T03:38:41.312Z,6.82
2022-09-29T03:41:08.389Z,7.13
2022-09-29T03:43:35.196Z,6.88
2022-09-29T03:46:02.220Z,6.72
2022-09-29T03:48:31.315Z,6.90
2022-09-29T03:50:58.146Z,6.85
2022-09-29T03:53:24.973Z,6.70
2022-09-29T03:55:52.097Z,7.30
2022-09-29T03:58:19.093Z,7.40
2022-09-29T04:00:48.068Z,7.10
2022-09-29T04:03:15.396Z,6.70
2022-09-29T04:05:42.189Z,7.13
2022-09-29T04:08:09.012Z,6.03
2022-09-29T04:10:39.645Z,7.55
2022-09-29T04:13:06.720Z,7.05
2022-09-29T04:15:33.595Z,7.88
2022-09-29T04:18:00.656Z,6.70
2022-09-29T04:20:27.445Z,7.22
2022-09-29T04:22:54.240Z,6.63
2022-09-29T04:25:21.290Z,6.72
2022-09-29T04:27:48.073Z,6.57
2022-09-29T04:30:15.255Z,6.13
2022-09-29T04:32:42.716Z,6.45
2022-09-29T04:35:09.658Z,7.38
2022-09-29T04:37:36.451Z,6.80
2022-09-29T04:40:04.993Z,6.82
2022-09-29T04:42:31.997Z,7.03
2022-09-29T04:44:58.781Z,7.22
2022-09-29T04:47:25.869Z,7.40
2022-09-29T04:49:52.663Z,6.13
2022-09-29T04:52:19.492Z,6.18
2022-09-29T04:54:46.576Z,7.20
2022-09-29T04:57:13.324Z,6.22
2022-09-29T04:59:40.156Z,6.32
2022-09-29T05:02:07.260Z,6.28
2022-09-29T05:04:34.124Z,5.88
2022-09-29T05:07:00.936Z,5.93
2022-09-29T05:09:33.014Z,5.93
2022-09-29T05:12:01.035Z,7.22
2022-09-29T05:14:28.019Z,6.93
2022-09-29T05:16:55.728Z,7.45
2022-09-29T05:19:22.559Z,6.25
2022-09-29T05:21:49.311Z,6.47
2022-09-29T05:24:16.528Z,6.60
2022-09-29T05:26:43.303Z,6.50
2022-09-29T05:29:10.071Z,6.05
2022-09-29T05:31:37.236Z,5.80
2022-09-29T05:34:04.044Z,6.15
2022-09-29T05:36:30.919Z,5.43
2022-09-29T05:38:57.979Z,7.05
2022-09-29T05:41:24.931Z,6.90
2022-09-29T05:43:53.577Z,7.82
2022-09-29T05:46:20.911Z,8.15
2022-09-29T05:48:47.983Z,7.78
2022-09-29T05:51:19.461Z,7.35
2022-09-29T05:53:49.663Z,8.43
2022-09-29T05:56:19.222Z,7.35
2022-09-29T05:58:46.003Z,7.75
2022-09-29T06:01:20.947Z,6.63
2022-09-29T06:03:47.851Z,7.95
2022-09-29T06:06:22.564Z,6.18
2022-09-29T06:08:49.626Z,6.38
2022-09-29T06:11:24.834Z,6.95
2022-09-29T06:13:52.542Z,8.07
2022-09-29T06:16:21.402Z,6.50
2022-09-29T06:18:48.341Z,7.47
2022-09-29T06:21:20.084Z,7.22
2022-09-29T06:23:47.218Z,7.43
2022-09-29T06:26:16.486Z,7.07
2022-09-29T06:28:45.987Z,7.22
2022-09-29T06:31:20.950Z,7.22
2022-09-29T06:33:47.981Z,6.50
2022-09-29T06:36:42.156Z,6.97
2022-09-29T06:39:10.700Z,6.88
2022-09-29T06:41:38.057Z,7.90
2022-09-29T06:44:04.928Z,7.82
2022-09-29T06:46:31.742Z,7.60
2022-09-29T06:48:58.807Z,7.20
2022-09-29T06:51:37.618Z,7.40
2022-09-29T06:54:14.736Z,8.48
2022-09-29T06:56:42.709Z,7.63
2022-09-29T06:59:09.581Z,7.30
2022-09-29T07:01:36.684Z,7.30
2022-09-29T07:04:03.619Z,7.32
2022-09-29T07:06:30.646Z,7.32
2022-09-29T07:08:58.887Z,7.03
2022-09-29T07:11:26.486Z,7.82
2022-09-29T07:13:54.832Z,7.78
2022-09-29T07:16:24.319Z,7.47
2022-09-29T07:18:52.798Z,7.60
2022-09-29T07:21:19.753Z,8.82
2022-09-29T07:23:47.028Z,6.88
2022-09-29T07:26:16.612Z,7.72
2022-09-29T07:28:44.273Z,7.90
2022-09-29T07:31:15.556Z,7.32
2022-09-29T07:33:46.378Z,7.47
2022-09-29T07:36:14.123Z,7.68
2022-09-29T07:38:41.035Z,7.50
2022-09-29T07:41:11.766Z,7.75
2022-09-29T07:43:39.254Z,7.55
2022-09-29T07:46:06.826Z,7.03
2022-09-29T07:48:33.915Z,7.53
2022-09-29T07:51:11.263Z,8.07
2022-09-29T07:53:38.154Z,7.97
2022-09-29T07:56:06.834Z,7.45
2022-09-29T07:58:33.724Z,7.55
2022-09-29T08:01:01.460Z,8.02
2022-09-29T08:03:30.228Z,8.10
2022-09-29T08:05:57.905Z,7.70
2022-09-29T08:08:25.054Z,6.90
2022-09-29T08:10:53.905Z,7.35
2022-09-29T08:13:21.054Z,7.05
2022-09-29T08:15:47.843Z,7.35
2022-09-29T08:18:14.887Z,7.30
2022-09-29T08:20:41.816Z,7.28
2022-09-29T08:23:08.897Z,7.95
2022-09-29T08:25:36.295Z,7.35
2022-09-29T08:28:03.167Z,6.88
2022-09-29T08:30:30.182Z,7.53
2022-09-29T08:32:57.357Z,7.38
2022-09-29T08:35:25.433Z,7.97
2022-09-29T08:37:55.206Z,8.05
2022-09-29T08:40:22.408Z,7.20
2022-09-29T08:42:55.272Z,7.72
2022-09-29T08:45:52.408Z,7.22
2022-09-29T08:48:26.124Z,7.05
2022-09-29T08:50:58.273Z,7.07
2022-09-29T08:53:29.003Z,7.63
2022-09-29T08:56:04.794Z,7.47
2022-09-29T08:58:32.322Z,7.57
2022-09-29T09:01:11.438Z,8.40
2022-09-29T09:04:01.741Z,6.82
2022-09-29T09:07:06.291Z,6.82
2022-09-29T09:09:41.939Z,7.40
2022-09-29T09:12:18.508Z,7.40
2022-09-29T09:15:15.184Z,7.00
2022-09-29T09:18:40.682Z,7.50
2022-09-29T09:21:25.384Z,7.25
2022-09-29T09:24:06.423Z,6.35
2022-09-29T09:26:37.704Z,6.53
2022-09-29T09:29:17.375Z,7.13
2022-09-29T09:31:47.040Z,7.00
2022-09-29T09:34:42.088Z,6.13
2022-09-29T09:37:32.638Z,6.03
2022-09-29T09:40:12.659Z,6.05
2022-09-29T09:42:40.123Z,6.03
2022-09-29T09:45:23.875Z,6.32
2022-09-29T09:47:55.852Z,6.95
2022-09-29T09:50:25.039Z,5.72
2022-09-29T09:52:53.319Z,6.13
2022-09-29T09:55:27.271Z,6.63
2022-09-29T09:58:22.613Z,6.13
2022-09-29T10:01:12.303Z,5.60
2022-09-29T10:03:39.562Z,5.85
2022-09-29T10:06:07.166Z,5.93
2022-09-29T10:08:39.662Z,5.35
2022-09-29T10:11:19.153Z,5.00
2022-09-29T10:13:46.047Z,5.07
2022-09-29T10:16:26.118Z,5.50
2022-09-29T10:18:53.226Z,5.30
2022-09-29T10:21:27.284Z,5.07
2022-09-29T10:23:54.468Z,4.65
2022-09-29T10:26:26.432Z,5.00
2022-09-29T10:29:01.974Z,5.15
2022-09-29T10:31:31.470Z,5.05
2022-09-29T10:34:13.841Z,5.70
2022-09-29T10:36:49.191Z,5.00
2022-09-29T10:39:32.351Z,5.57
2022-09-29T10:41:59.382Z,4.68
2022-09-29T10:44:31.190Z,5.30
2022-09-29T10:46:58.550Z,5.03
2022-09-29T10:49:29.940Z,4.97
2022-09-29T10:52:04.652Z,4.90
2022-09-29T10:54:36.761Z,5.10
2022-09-29T10:57:14.375Z,4.85
2022-09-29T10:59:49.157Z,5.32
2022-09-29T11:02:28.309Z,4.95
2022-09-29T11:04:56.702Z,5.05
2022-09-29T11:07:23.470Z,5.35
2022-09-29T11:09:51.259Z,5.50
2022-09-29T11:12:28.804Z,5.40
2022-09-29T11:14:55.617Z,5.03
2022-09-29T11:17:23.148Z,5.95
2022-09-29T11:19:53.898Z,5.75
2022-09-29T11:22:38.961Z,5.97
2022-09-29T11:25:43.850Z,4.85
2022-09-29T11:28:35.048Z,4.93
2022-09-29T11:31:11.980Z,5.45
2022-09-29T11:34:08.115Z,4.90
2022-09-29T11:36:38.723Z,5.45
2022-09-29T11:39:21.748Z,5.65
2022-09-29T11:41:57.847Z,4.43
2022-09-29T11:44:43.407Z,5.25
2022-09-29T11:47:49.096Z,5.07
2022-09-29T11:50:33.880Z,4.60
2022-09-29T11:53:31.025Z,5.20
2022-09-29T11:56:31.904Z,5.13
2022-09-29T11:59:12.569Z,4.88
2022-09-29T12:01:43.711Z,4.85
2022-09-29T12:04:32.059Z,5.25
2022-09-29T12:07:17.667Z,4.75
2022-09-29T12:09:50.878Z,4.35
2022-09-29T12:12:24.815Z,4.82
2022-09-29T12:15:01.164Z,4.78
2022-09-29T12:17:31.324Z,3.78
2022-09-29T12:20:02.295Z,4.35
2022-09-29T12:22:33.162Z,4.10
2022-09-29T12:25:03.178Z,4.57
2022-09-29T12:27:40.450Z,4.28
2022-09-29T12:30:11.194Z,3.95
2022-09-29T12:32:40.167Z,4.40
2022-09-29T12:35:12.143Z,4.05
2022-09-29T12:37:42.110Z,4.28
2022-09-29T12:40:20.060Z,4.63
2022-09-29T12:42:59.430Z,4.15
2022-09-29T12:45:47.002Z,3.90
2022-09-29T12:48:39.600Z,4.22
2022-09-29T12:51:30.509Z,3.95
2022-09-29T12:54:07.276Z,3.92
2022-09-29T12:56:38.455Z,4.03
2022-09-29T12:59:09.567Z,3.88
2022-09-29T13:01:37.167Z,3.78
2022-09-29T13:04:15.351Z,4.32
2022-09-29T13:07:18.494Z,4.10
2022-09-29T13:09:51.053Z,3.60
2022-09-29T13:12:18.118Z,4.63
2022-09-29T13:14:50.607Z,3.60
2022-09-29T13:17:24.129Z,3.28
2022-09-29T13:20:20.552Z,3.20
2022-09-29T13:23:12.043Z,2.90
2022-09-29T13:26:07.096Z,2.58
2022-09-29T13:28:38.531Z,3.17
2022-09-29T13:31:07.577Z,2.85
2022-09-29T13:33:34.602Z,3.35
2022-09-29T13:36:01.574Z,3.15
2022-09-29T13:38:30.574Z,2.83
2022-09-29T13:41:10.571Z,3.22
2022-09-29T13:43:57.529Z,3.10
2022-09-29T13:46:30.607Z,3.20
2022-09-29T13:49:11.306Z,2.78
2022-09-29T13:52:01.800Z,2.78
2022-09-29T13:54:35.301Z,2.83
2022-09-29T13:57:05.854Z,2.58
2022-09-29T13:59:33.142Z,2.13
2022-09-29T14:02:00.162Z,2.33
2022-09-29T14:04:37.925Z,2.88
2022-09-29T14:07:06.124Z,3.17
2022-09-29T14:09:42.228Z,2.58
2022-09-29T14:12:16.865Z,3.33
2022-09-29T14:14:45.851Z,3.07
2022-09-29T14:17:42.735Z,2.90
2022-09-29T14:20:19.517Z,3.10
2022-09-29T14:22:46.558Z,2.72
2022-09-29T14:25:15.442Z,3.53
2022-09-29T14:28:01.506Z,2.95
2022-09-29T14:30:32.529Z,3.20
2022-09-29T14:33:01.190Z,3.65
2022-09-29T14:35:27.933Z,2.95
2022-09-29T14:38:14.694Z,3.30
2022-09-29T14:41:03.124Z,3.47
2022-09-29T14:44:10.372Z,3.83
2022-09-29T14:47:04.857Z,2.88
2022-09-29T14:50:08.689Z,3.60
2022-09-29T14:52:43.947Z,3.10
2022-09-29T14:55:32.301Z,3.13
2022-09-29T14:58:14.635Z,3.03
2022-09-29T15:00:57.812Z,3.60
2022-09-29T15:03:28.686Z,3.10
2022-09-29T15:06:12.164Z,3.15
2022-09-29T15:08:39.981Z,3.50
2022-09-29T15:11:27.261Z,3.35
2022-09-29T15:13:55.537Z,4.00
2022-09-29T15:16:31.853Z,3.47
2022-09-29T15:19:17.332Z,3.15
2022-09-29T15:21:55.552Z,3.75
2022-09-29T15:24:47.362Z,3.83
2022-09-29T15:27:14.865Z,3.65
2022-09-29T15:29:46.468Z,3.25
2022-09-29T15:32:20.955Z,3.40
2022-09-29T15:34:52.467Z,3.65
2022-09-29T15:37:22.247Z,3.78
2022-09-29T15:39:53.475Z,3.53
2022-09-29T15:42:22.239Z,3.80
2022-09-29T15:44:55.425Z,3.30
2022-09-29T15:47:42.895Z,3.38
2022-09-29T15:50:32.013Z,2.92
2022-09-29T15:53:02.760Z,4.00
2022-09-29T15:55:30.676Z,3.25
2022-09-29T15:58:02.290Z,3.45
2022-09-29T16:00:35.810Z,3.70
2022-09-29T16:03:27.277Z,2.97
2022-09-29T16:06:00.278Z,3.30
2022-09-29T16:08:28.836Z,2.97
2022-09-29T16:10:57.600Z,3.65
2022-09-29T16:13:27.612Z,3.45
2022-09-29T16:15:59.910Z,3.28
2022-09-29T16:18:49.195Z,3.75
2022-09-29T16:21:20.609Z,3.88
2022-09-29T16:23:59.911Z,3.97
2022-09-29T16:26:40.717Z,3.83
2022-09-29T16:29:10.934Z,4.15
2022-09-29T16:31:42.022Z,4.78
2022-09-29T16:34:21.500Z,5.50
2022-09-29T16:36:59.263Z,5.75
2022-09-29T16:39:32.621Z,6.65
2022-09-29T16:42:05.342Z,7.20
2022-09-29T16:44:43.663Z,6.05
2022-09-29T16:47:19.726Z,7.10
2022-09-29T16:50:05.024Z,6.80
2022-09-29T16:52:44.965Z,7.28
2022-09-29T16:55:22.134Z,7.05
2022-09-29T16:58:01.889Z,8.02
2022-09-29T17:00:30.456Z,7.70
2022-09-29T17:02:57.858Z,6.60
2022-09-29T17:05:25.129Z,7.90
2022-09-29T17:07:59.972Z,7.88
2022-09-29T17:10:26.975Z,7.63
2022-09-29T17:12:54.791Z,7.32
2022-09-29T17:15:22.402Z,7.78
2022-09-29T17:17:49.843Z,7.57
2022-09-29T17:20:22.105Z,8.48
2022-09-29T17:22:51.852Z,10.43
2022-09-29T17:25:18.902Z,10.15
2022-09-29T17:28:04.376Z,9.80
2022-09-29T17:30:31.463Z,10.45
2022-09-29T17:32:58.953Z,10.95
2022-09-29T17:35:34.692Z,13.18
2022-09-29T17:38:01.801Z,14.40
2022-09-29T17:40:43.850Z,13.25
2022-09-29T17:43:10.880Z,13.93
2022-09-29T17:45:39.344Z,14.25
2022-09-29T17:48:06.148Z,14.32
2022-09-29T17:50:36.814Z,13.80
2022-09-29T17:53:04.376Z,13.85
2022-09-29T17:55:32.006Z,14.95
2022-09-29T17:57:59.289Z,13.48
2022-09-29T18:00:29.079Z,14.32
2022-09-29T18:02:59.416Z,14.20
2022-09-29T18:05:28.087Z,14.07
2022-09-29T18:07:55.989Z,13.85
2022-09-29T18:10:25.795Z,14.95
2022-09-29T18:12:53.209Z,15.35
2022-09-29T18:15:19.989Z,14.70
2022-09-29T18:17:47.073Z,14.60
2022-09-29T18:20:18.908Z,15.45
2022-09-29T18:22:47.195Z,15.60
2022-09-29T18:25:16.319Z,13.75
2022-09-29T18:27:44.347Z,15.85
2022-09-29T18:30:24.307Z,14.15
2022-09-29T18:32:53.971Z,14.88
2022-09-29T18:35:31.112Z,16.60
2022-09-29T18:37:58.854Z,14.70
2022-09-29T18:40:26.136Z,15.80
2022-09-29T18:42:53.275Z,17.17
2022-09-29T18:45:25.043Z,17.77
2022-09-29T18:47:53.333Z,16.80
2022-09-29T18:50:27.662Z,18.00
2022-09-29T18:52:55.434Z,17.50
2022-09-29T18:55:24.210Z,17.10
2022-09-29T18:57:51.658Z,16.67
2022-09-29T19:00:20.723Z,18.02
2022-09-29T19:02:47.637Z,17.92
2022-09-29T19:05:21.097Z,17.30
2022-09-29T19:07:49.071Z,16.98
2022-09-29T19:10:16.553Z,17.73
2022-09-29T19:12:48.350Z,17.20
2022-09-29T19:15:16.527Z,16.88
2022-09-29T19:17:44.954Z,16.90
2022-09-29T19:20:13.150Z,16.95
2022-09-29T19:22:42.693Z,17.20
2022-09-29T19:25:18.506Z,16.00
2022-09-29T19:27:45.871Z,15.98
2022-09-29T19:30:14.395Z,17.55
2022-09-29T19:32:41.722Z,17.38
2022-09-29T19:35:10.567Z,19.13
2022-09-29T19:37:37.956Z,17.67
2022-09-29T19:40:06.060Z,18.17
2022-09-29T19:42:33.157Z,16.98
2022-09-29T19:44:59.928Z,16.83
2022-09-29T19:47:26.729Z,18.33
2022-09-29T19:50:13.704Z,17.92
2022-09-29T19:52:40.496Z,17.75
2022-09-29T19:55:11.395Z,16.40
2022-09-29T19:57:42.429Z,16.17
2022-09-29T20:00:11.032Z,16.73
2022-09-29T20:02:37.880Z,16.52
2022-09-29T20:05:05.616Z,16.90
2022-09-29T20:07:32.749Z,15.15
2022-09-29T20:09:59.560Z,14.38
2022-09-29T20:12:26.406Z,15.05
2022-09-29T20:14:53.453Z,16.00
2022-09-29T20:17:20.214Z,15.20
2022-09-29T20:19:47.884Z,15.75
2022-09-29T20:22:15.537Z,15.13
2022-09-29T20:24:42.314Z,14.35
2022-09-29T20:27:09.308Z,15.30
2022-09-29T20:29:36.353Z,14.98
2022-09-29T20:32:03.123Z,14.70
2022-09-29T20:34:29.872Z,15.43
2022-09-29T20:36:56.993Z,14.90
2022-09-29T20:39:25.796Z,14.82
2022-09-29T20:41:55.667Z,15.50
2022-09-29T20:44:26.943Z,15.68
2022-09-29T20:46:54.766Z,15.27
2022-09-29T20:49:21.804Z,14.50
2022-09-29T20:51:48.900Z,14.05
2022-09-29T20:54:15.701Z,14.65
2022-09-29T20:56:42.592Z,14.45
2022-09-29T20:59:15.968Z,15.40
2022-09-29T21:01:43.467Z,13.85
2022-09-29T21:04:12.260Z,14.95
2022-09-29T21:06:41.060Z,13.48
2022-09-29T21:09:09.402Z,14.95
2022-09-29T21:11:39.844Z,13.75
2022-09-29T21:14:11.050Z,13.60
2022-09-29T21:16:41.828Z,13.73
2022-09-29T21:19:09.544Z,14.77
2022-09-29T21:21:36.360Z,14.82
2022-09-29T21:24:03.761Z,13.88
2022-09-29T21:26:30.988Z,15.00
2022-09-29T21:28:59.706Z,15.27
2022-09-29T21:31:28.541Z,15.10
2022-09-29T21:33:56.776Z,15.20
2022-09-29T21:36:25.061Z,14.02
2022-09-29T21:38:52.198Z,14.75
2022-09-29T21:41:32.513Z,15.95
2022-09-29T21:44:01.160Z,15.15
2022-09-29T21:46:30.283Z,14.85
2022-09-29T21:48:58.708Z,14.60
2022-09-29T21:51:27.593Z,14.43
2022-09-29T21:53:54.973Z,13.57
2022-09-29T21:56:22.676Z,14.45
2022-09-29T21:58:50.173Z,14.15
2022-09-29T22:01:17.100Z,14.63
2022-09-29T22:03:45.632Z,13.52
2022-09-29T22:06:13.472Z,14.02
2022-09-29T22:08:40.386Z,14.25
2022-09-29T22:11:07.403Z,12.32
2022-09-29T22:13:37.894Z,14.07
2022-09-29T22:16:10.226Z,14.48
2022-09-29T22:18:41.710Z,13.88
2022-09-29T22:21:12.662Z,14.23
2022-09-29T22:23:39.984Z,13.55
2022-09-29T22:26:11.057Z,14.05
2022-09-29T22:28:38.236Z,14.10
2022-09-29T22:31:09.528Z,13.23
2022-09-29T22:33:37.560Z,13.02
2022-09-29T22:36:05.024Z,12.90
2022-09-29T22:38:34.392Z,12.52
2022-09-29T22:41:01.429Z,13.02
2022-09-29T22:43:28.275Z,12.18
2022-09-29T22:45:55.360Z,11.95
2022-09-29T22:48:22.216Z,12.00
2022-09-29T22:50:49.227Z,11.65
2022-09-29T22:53:16.375Z,12.07
2022-09-29T22:55:43.221Z,11.70
2022-09-29T22:58:10.855Z,12.82
2022-09-29T23:00:38.532Z,12.18
2022-09-29T23:03:06.084Z,12.05
2022-09-29T23:05:33.392Z,12.07
2022-09-29T23:08:00.603Z,11.73
2022-09-29T23:10:27.455Z,12.05
2022-09-29T23:12:55.414Z,11.27
2022-09-29T23:15:22.626Z,12.88
2022-09-29T23:17:51.273Z,12.65
2022-09-29T23:20:18.319Z,13.02
2022-09-29T23:22:45.411Z,12.45
2022-09-29T23:25:12.651Z,12.93
2022-09-29T23:27:39.471Z,12.70
2022-09-29T23:30:06.913Z,12.60
2022-09-29T23:32:33.818Z,12.73
2022-09-29T23:35:00.662Z,12.63
2022-09-29T23:37:47.743Z,12.23
2022-09-29T23:40:14.676Z,10.65
2022-09-29T23:42:41.735Z,12.68
2022-09-29T23:45:08.738Z,12.25
2022-09-29T23:47:36.058Z,11.43
2022-09-29T23:50:03.370Z,12.00
2022-09-29T23:52:30.266Z,12.50
2022-09-29T23:54:57.122Z,10.98
2022-09-29T23:57:24.538Z,12.02
2022-09-29T23:59:51.390Z,11.10
